sensor_id;sensor_type;location;lat;lon;timestamp;pressure;altitude;pressure_sealevel;temperature;humidity
38616;BME280;24370;51.986;4.666;2023-10-08T00:00:31;102370.63;;;26.58;51.47
38616;BME280;24370;51.986;4.666;2023-10-08T00:03:15;102388.56;;;27.23;49.46
38616;BME280;24370;51.986;4.666;2023-10-08T00:05:42;102374.47;;;26.19;52.24
38616;BME280;24370;51.986;4.666;2023-10-08T00:08:08;102376.78;;;27.10;50.02
38616;BME280;24370;51.986;4.666;2023-10-08T00:10:38;102384.22;;;27.69;48.52
38616;BME280;24370;51.986;4.666;2023-10-08T00:13:07;102377.97;;;26.88;50.08
38616;BME280;24370;51.986;4.666;2023-10-08T00:15:37;102379.75;;;27.53;48.90
38616;BME280;24370;51.986;4.666;2023-10-08T00:18:06;102377.91;;;27.54;48.40
38616;BME280;24370;51.986;4.666;2023-10-08T00:20:34;102385.91;;;28.02;47.19
38616;BME280;24370;51.986;4.666;2023-10-08T00:23:29;102382.16;;;27.10;49.10
38616;BME280;24370;51.986;4.666;2023-10-08T00:25:55;102380.06;;;27.15;49.08
38616;BME280;24370;51.986;4.666;2023-10-08T00:28:23;102369.81;;;26.74;50.30
38616;BME280;24370;51.986;4.666;2023-10-08T00:30:49;102352.00;;;27.05;49.39
38616;BME280;24370;51.986;4.666;2023-10-08T00:33:20;102364.16;;;26.63;50.59
38616;BME280;24370;51.986;4.666;2023-10-08T00:35:45;102359.28;;;27.19;48.88
38616;BME280;24370;51.986;4.666;2023-10-08T00:38:12;102358.28;;;27.53;48.22
38616;BME280;24370;51.986;4.666;2023-10-08T00:40:45;102344.41;;;27.13;48.68
38616;BME280;24370;51.986;4.666;2023-10-08T00:43:31;102347.03;;;27.47;47.93
38616;BME280;24370;51.986;4.666;2023-10-08T00:45:59;102334.81;;;27.41;48.07
38616;BME280;24370;51.986;4.666;2023-10-08T00:48:25;102336.53;;;27.10;48.98
38616;BME280;24370;51.986;4.666;2023-10-08T00:50:57;102329.97;;;27.00;49.19
38616;BME280;24370;51.986;4.666;2023-10-08T00:53:42;102329.59;;;27.38;47.84
38616;BME280;24370;51.986;4.666;2023-10-08T00:56:08;102323.09;;;26.94;49.33
38616;BME280;24370;51.986;4.666;2023-10-08T00:58:44;102332.50;;;27.65;47.39
38616;BME280;24370;51.986;4.666;2023-10-08T01:01:14;102344.38;;;27.91;47.29
38616;BME280;24370;51.986;4.666;2023-10-08T01:03:41;102345.75;;;27.99;46.37
38616;BME280;24370;51.986;4.666;2023-10-08T01:06:11;102348.88;;;28.21;46.23
38616;BME280;24370;51.986;4.666;2023-10-08T01:08:37;102355.03;;;28.23;45.87
38616;BME280;24370;51.986;4.666;2023-10-08T01:11:22;102359.44;;;28.24;46.05
38616;BME280;24370;51.986;4.666;2023-10-08T01:13:57;102357.34;;;28.30;45.55
38616;BME280;24370;51.986;4.666;2023-10-08T01:16:24;102365.69;;;28.25;45.96
38616;BME280;24370;51.986;4.666;2023-10-08T01:18:52;102366.78;;;28.51;45.20
38616;BME280;24370;51.986;4.666;2023-10-08T01:21:19;102358.78;;;28.21;45.88
38616;BME280;24370;51.986;4.666;2023-10-08T01:24:00;102365.59;;;28.41;45.50
38616;BME280;24370;51.986;4.666;2023-10-08T01:26:26;102360.31;;;28.39;45.16
38616;BME280;24370;51.986;4.666;2023-10-08T01:28:55;102351.16;;;27.52;47.10
38616;BME280;24370;51.986;4.666;2023-10-08T01:31:20;102355.31;;;27.58;47.12
38616;BME280;24370;51.986;4.666;2023-10-08T01:33:46;102356.81;;;27.78;46.60
38616;BME280;24370;51.986;4.666;2023-10-08T01:36:12;102369.88;;;27.84;47.07
38616;BME280;24370;51.986;4.666;2023-10-08T01:38:38;102363.16;;;27.91;46.67
38616;BME280;24370;51.986;4.666;2023-10-08T01:41:04;102355.44;;;27.71;47.04
38616;BME280;24370;51.986;4.666;2023-10-08T01:43:44;102351.56;;;28.07;45.84
38616;BME280;24370;51.986;4.666;2023-10-08T01:46:10;102362.31;;;28.07;46.55
38616;BME280;24370;51.986;4.666;2023-10-08T01:48:37;102372.47;;;28.16;45.73
38616;BME280;24370;51.986;4.666;2023-10-08T01:51:03;102383.22;;;28.16;45.87
38616;BME280;24370;51.986;4.666;2023-10-08T01:53:35;102375.94;;;28.18;46.00
38616;BME280;24370;51.986;4.666;2023-10-08T01:56:00;102388.06;;;28.25;45.90
38616;BME280;24370;51.986;4.666;2023-10-08T01:58:26;102394.16;;;28.13;45.93
38616;BME280;24370;51.986;4.666;2023-10-08T02:00:53;102403.47;;;27.91;46.03
38616;BME280;24370;51.986;4.666;2023-10-08T02:03:19;102417.44;;;28.29;45.81
38616;BME280;24370;51.986;4.666;2023-10-08T02:05:46;102409.25;;;28.16;46.04
38616;BME280;24370;51.986;4.666;2023-10-08T02:08:12;102408.13;;;27.73;47.06
38616;BME280;24370;51.986;4.666;2023-10-08T02:10:42;102401.63;;;28.08;46.23
38616;BME280;24370;51.986;4.666;2023-10-08T02:13:08;102406.88;;;27.79;46.67
38616;BME280;24370;51.986;4.666;2023-10-08T02:15:43;102402.03;;;28.02;46.21
38616;BME280;24370;51.986;4.666;2023-10-08T02:18:08;102389.75;;;28.12;46.04
38616;BME280;24370;51.986;4.666;2023-10-08T02:20:34;102392.28;;;27.99;46.61
38616;BME280;24370;51.986;4.666;2023-10-08T02:22:59;102389.53;;;28.01;46.11
38616;BME280;24370;51.986;4.666;2023-10-08T02:25:25;102392.63;;;28.09;46.35
38616;BME280;24370;51.986;4.666;2023-10-08T02:27:51;102389.00;;;28.10;46.44
38616;BME280;24370;51.986;4.666;2023-10-08T02:30:16;102383.41;;;28.13;46.33
38616;BME280;24370;51.986;4.666;2023-10-08T02:32:43;102384.50;;;27.95;46.55
38616;BME280;24370;51.986;4.666;2023-10-08T02:35:09;102389.22;;;27.75;46.84
38616;BME280;24370;51.986;4.666;2023-10-08T02:37:37;102383.03;;;27.89;46.55
38616;BME280;24370;51.986;4.666;2023-10-08T02:40:08;102388.22;;;27.46;47.24
38616;BME280;24370;51.986;4.666;2023-10-08T02:42:41;102395.69;;;28.03;46.70
38616;BME280;24370;51.986;4.666;2023-10-08T02:45:07;102400.16;;;28.33;45.64
38616;BME280;24370;51.986;4.666;2023-10-08T02:47:40;102407.66;;;28.42;45.85
38616;BME280;24370;51.986;4.666;2023-10-08T02:50:06;102402.44;;;28.10;46.20
38616;BME280;24370;51.986;4.666;2023-10-08T02:52:33;102396.25;;;28.08;46.20
38616;BME280;24370;51.986;4.666;2023-10-08T02:54:59;102394.38;;;28.10;46.30
38616;BME280;24370;51.986;4.666;2023-10-08T02:57:25;102396.84;;;28.13;46.20
38616;BME280;24370;51.986;4.666;2023-10-08T02:59:54;102394.91;;;28.01;46.37
38616;BME280;24370;51.986;4.666;2023-10-08T03:02:19;102398.69;;;27.97;46.54
38616;BME280;24370;51.986;4.666;2023-10-08T03:04:47;102397.44;;;28.18;45.81
38616;BME280;24370;51.986;4.666;2023-10-08T03:07:16;102405.13;;;28.24;45.95
38616;BME280;24370;51.986;4.666;2023-10-08T03:09:51;102397.84;;;28.26;45.85
38616;BME280;24370;51.986;4.666;2023-10-08T03:12:29;102406.00;;;27.95;46.30
38616;BME280;24370;51.986;4.666;2023-10-08T03:15:03;102395.50;;;28.06;46.44
38616;BME280;24370;51.986;4.666;2023-10-08T03:17:47;102393.72;;;27.90;46.39
38616;BME280;24370;51.986;4.666;2023-10-08T03:20:18;102392.16;;;27.86;46.63
38616;BME280;24370;51.986;4.666;2023-10-08T03:22:54;102398.25;;;27.74;46.54
38616;BME280;24370;51.986;4.666;2023-10-08T03:25:22;102395.56;;;27.74;46.68
38616;BME280;24370;51.986;4.666;2023-10-08T03:27:49;102394.06;;;27.84;46.46
38616;BME280;24370;51.986;4.666;2023-10-08T03:30:15;102398.91;;;27.77;46.94
38616;BME280;24370;51.986;4.666;2023-10-08T03:32:42;102411.06;;;27.69;46.99
38616;BME280;24370;51.986;4.666;2023-10-08T03:35:09;102406.53;;;27.85;46.38
38616;BME280;24370;51.986;4.666;2023-10-08T03:37:36;102421.94;;;27.98;46.22
38616;BME280;24370;51.986;4.666;2023-10-08T03:40:07;102431.44;;;27.73;47.18
38616;BME280;24370;51.986;4.666;2023-10-08T03:42:55;102444.09;;;28.17;45.96
38616;BME280;24370;51.986;4.666;2023-10-08T03:45:21;102448.31;;;28.07;46.11
38616;BME280;24370;51.986;4.666;2023-10-08T03:48:07;102442.53;;;28.13;45.92
38616;BME280;24370;51.986;4.666;2023-10-08T03:50:36;102437.34;;;27.94;46.13
38616;BME280;24370;51.986;4.666;2023-10-08T03:53:09;102431.31;;;27.90;46.42
38616;BME280;24370;51.986;4.666;2023-10-08T03:55:38;102436.72;;;27.74;46.79
38616;BME280;24370;51.986;4.666;2023-10-08T03:58:07;102439.94;;;28.12;46.34
38616;BME280;24370;51.986;4.666;2023-10-08T04:00:44;102448.50;;;27.72;47.12
38616;BME280;24370;51.986;4.666;2023-10-08T04:03:11;102457.16;;;27.77;46.85
38616;BME280;24370;51.986;4.666;2023-10-08T04:05:37;102451.38;;;27.69;46.76
38616;BME280;24370;51.986;4.666;2023-10-08T04:08:24;102465.78;;;27.98;46.40
38616;BME280;24370;51.986;4.666;2023-10-08T04:11:05;102471.44;;;27.93;46.07
38616;BME280;24370;51.986;4.666;2023-10-08T04:13:34;102480.72;;;27.56;47.22
38616;BME280;24370;51.986;4.666;2023-10-08T04:16:04;102474.56;;;27.86;46.85
38616;BME280;24370;51.986;4.666;2023-10-08T04:18:30;102476.16;;;27.74;47.18
38616;BME280;24370;51.986;4.666;2023-10-08T04:20:55;102474.66;;;27.52;47.56
38616;BME280;24370;51.986;4.666;2023-10-08T04:23:30;102467.47;;;27.53;47.63
38616;BME280;24370;51.986;4.666;2023-10-08T04:25:55;102475.53;;;27.69;47.21
38616;BME280;24370;51.986;4.666;2023-10-08T04:28:22;102473.09;;;27.80;46.87
38616;BME280;24370;51.986;4.666;2023-10-08T04:30:51;102478.47;;;27.80;46.68
38616;BME280;24370;51.986;4.666;2023-10-08T04:33:16;102483.84;;;27.80;46.68
38616;BME280;24370;51.986;4.666;2023-10-08T04:35:45;102489.56;;;28.06;46.32
38616;BME280;24370;51.986;4.666;2023-10-08T04:38:19;102476.03;;;27.59;47.22
38616;BME280;24370;51.986;4.666;2023-10-08T04:40:48;102479.69;;;27.58;47.55
38616;BME280;24370;51.986;4.666;2023-10-08T04:43:24;102470.06;;;27.54;47.60
38616;BME280;24370;51.986;4.666;2023-10-08T04:46:00;102485.44;;;27.35;47.60
38616;BME280;24370;51.986;4.666;2023-10-08T04:48:45;102471.16;;;27.34;47.74
38616;BME280;24370;51.986;4.666;2023-10-08T04:51:11;102474.66;;;27.84;46.99
38616;BME280;24370;51.986;4.666;2023-10-08T04:53:38;102481.06;;;27.50;47.72
38616;BME280;24370;51.986;4.666;2023-10-08T04:56:12;102473.72;;;27.04;48.65
38616;BME280;24370;51.986;4.666;2023-10-08T04:58:47;102480.38;;;27.46;47.64
38616;BME280;24370;51.986;4.666;2023-10-08T05:03:57;102486.09;;;27.40;47.48
38616;BME280;24370;51.986;4.666;2023-10-08T05:06:26;102481.31;;;26.96;48.50
38616;BME280;24370;51.986;4.666;2023-10-08T05:09:12;102477.56;;;26.82;48.77
38616;BME280;24370;51.986;4.666;2023-10-08T05:11:52;102465.59;;;27.21;48.11
38616;BME280;24370;51.986;4.666;2023-10-08T05:14:36;102474.22;;;27.76;46.58
38616;BME280;24370;51.986;4.666;2023-10-08T05:17:11;102483.69;;;26.84;49.20
38616;BME280;24370;51.986;4.666;2023-10-08T05:19:47;102475.59;;;27.02;49.48
38616;BME280;24370;51.986;4.666;2023-10-08T05:22:15;102474.56;;;27.04;49.18
38616;BME280;24370;51.986;4.666;2023-10-08T05:25:07;102490.78;;;26.15;51.31
38616;BME280;24370;51.986;4.666;2023-10-08T05:27:36;102501.69;;;25.74;52.43
38616;BME280;24370;51.986;4.666;2023-10-08T05:30:18;102507.47;;;26.03;51.75
38616;BME280;24370;51.986;4.666;2023-10-08T05:32:53;102502.84;;;25.68;51.35
38616;BME280;24370;51.986;4.666;2023-10-08T05:35:28;102515.69;;;26.17;50.59
38616;BME280;24370;51.986;4.666;2023-10-08T05:38:18;102502.75;;;26.08;50.60
38616;BME280;24370;51.986;4.666;2023-10-08T05:40:59;102495.00;;;25.83;50.48
38616;BME280;24370;51.986;4.666;2023-10-08T05:43:27;102493.88;;;25.50;51.61
38616;BME280;24370;51.986;4.666;2023-10-08T05:48:53;102482.75;;;26.85;47.76
38616;BME280;24370;51.986;4.666;2023-10-08T05:51:33;102481.16;;;25.92;49.58
38616;BME280;24370;51.986;4.666;2023-10-08T05:54:29;102493.78;;;26.27;49.14
38616;BME280;24370;51.986;4.666;2023-10-08T05:57:03;102506.91;;;26.50;48.61
38616;BME280;24370;51.986;4.666;2023-10-08T06:02:20;102499.06;;;26.46;48.62
38616;BME280;24370;51.986;4.666;2023-10-08T06:05:03;102505.06;;;26.33;48.43
38616;BME280;24370;51.986;4.666;2023-10-08T06:10:24;102521.81;;;25.64;50.57
38616;BME280;24370;51.986;4.666;2023-10-08T06:15:42;102529.44;;;25.33;51.08
38616;BME280;24370;51.986;4.666;2023-10-08T06:18:20;102538.16;;;24.97;52.08
38616;BME280;24370;51.986;4.666;2023-10-08T06:20:51;102548.84;;;24.12;53.89
38616;BME280;24370;51.986;4.666;2023-10-08T06:23:20;102551.69;;;25.54;50.32
38616;BME280;24370;51.986;4.666;2023-10-08T06:25:49;102544.59;;;25.72;50.01
38616;BME280;24370;51.986;4.666;2023-10-08T06:28:22;102554.81;;;25.64;49.93
38616;BME280;24370;51.986;4.666;2023-10-08T06:30:55;102554.38;;;25.54;50.60
38616;BME280;24370;51.986;4.666;2023-10-08T06:33:23;102565.34;;;24.66;52.59
38616;BME280;24370;51.986;4.666;2023-10-08T06:35:50;102568.25;;;25.44;50.54
38616;BME280;24370;51.986;4.666;2023-10-08T06:38:41;102563.75;;;25.44;50.92
38616;BME280;24370;51.986;4.666;2023-10-08T06:41:09;102566.97;;;25.11;51.69
38616;BME280;24370;51.986;4.666;2023-10-08T06:43:49;102564.03;;;25.38;51.36
38616;BME280;24370;51.986;4.666;2023-10-08T06:46:16;102557.03;;;24.94;52.55
38616;BME280;24370;51.986;4.666;2023-10-08T06:48:45;102558.06;;;24.27;54.02
38616;BME280;24370;51.986;4.666;2023-10-08T06:51:12;102557.13;;;24.28;53.97
38616;BME280;24370;51.986;4.666;2023-10-08T06:53:46;102569.09;;;24.62;52.79
38616;BME280;24370;51.986;4.666;2023-10-08T06:56:16;102586.69;;;24.88;52.03
38616;BME280;24370;51.986;4.666;2023-10-08T06:58:43;102585.81;;;24.22;53.08
38616;BME280;24370;51.986;4.666;2023-10-08T07:01:17;102593.78;;;23.53;55.47
38616;BME280;24370;51.986;4.666;2023-10-08T07:03:49;102595.06;;;24.80;51.86
38616;BME280;24370;51.986;4.666;2023-10-08T07:06:18;102581.28;;;24.69;51.48
38616;BME280;24370;51.986;4.666;2023-10-08T07:08:57;102595.94;;;24.36;52.20
38616;BME280;24370;51.986;4.666;2023-10-08T07:11:25;102598.41;;;24.85;51.11
38616;BME280;24370;51.986;4.666;2023-10-08T07:13:52;102586.22;;;25.19;49.98
38616;BME280;24370;51.986;4.666;2023-10-08T07:16:18;102602.63;;;24.25;51.47
38616;BME280;24370;51.986;4.666;2023-10-08T07:18:44;102601.66;;;24.49;50.62
38616;BME280;24370;51.986;4.666;2023-10-08T07:21:18;102599.88;;;24.72;50.32
38616;BME280;24370;51.986;4.666;2023-10-08T07:23:43;102604.41;;;24.90;49.52
38616;BME280;24370;51.986;4.666;2023-10-08T07:26:22;102614.72;;;25.20;48.60
38616;BME280;24370;51.986;4.666;2023-10-08T07:28:51;102620.72;;;24.18;50.91
38616;BME280;24370;51.986;4.666;2023-10-08T07:31:23;102615.13;;;25.11;49.22
38616;BME280;24370;51.986;4.666;2023-10-08T07:33:53;102624.63;;;25.18;48.51
38616;BME280;24370;51.986;4.666;2023-10-08T07:36:28;102631.06;;;25.14;48.98
38616;BME280;24370;51.986;4.666;2023-10-08T07:38:56;102633.00;;;24.68;49.79
38616;BME280;24370;51.986;4.666;2023-10-08T07:41:22;102630.25;;;24.01;51.58
38616;BME280;24370;51.986;4.666;2023-10-08T07:43:48;102633.75;;;23.04;53.69
38616;BME280;24370;51.986;4.666;2023-10-08T07:46:23;102632.63;;;23.36;53.25
38616;BME280;24370;51.986;4.666;2023-10-08T07:48:51;102641.00;;;23.51;53.05
38616;BME280;24370;51.986;4.666;2023-10-08T07:51:17;102645.31;;;23.55;53.11
38616;BME280;24370;51.986;4.666;2023-10-08T07:53:50;102641.69;;;23.81;51.88
38616;BME280;24370;51.986;4.666;2023-10-08T07:56:21;102634.59;;;24.28;51.07
38616;BME280;24370;51.986;4.666;2023-10-08T07:58:47;102644.03;;;24.14;51.23
38616;BME280;24370;51.986;4.666;2023-10-08T08:01:13;102635.19;;;24.12;51.46
38616;BME280;24370;51.986;4.666;2023-10-08T08:03:40;102639.38;;;23.96;51.61
38616;BME280;24370;51.986;4.666;2023-10-08T08:06:07;102653.72;;;23.44;53.34
38616;BME280;24370;51.986;4.666;2023-10-08T08:08:34;102639.22;;;23.26;53.80
38616;BME280;24370;51.986;4.666;2023-10-08T08:11:05;102648.50;;;23.40;53.12
38616;BME280;24370;51.986;4.666;2023-10-08T08:13:35;102652.72;;;24.19;51.37
38616;BME280;24370;51.986;4.666;2023-10-08T08:16:01;102668.63;;;23.25;53.94
38616;BME280;24370;51.986;4.666;2023-10-08T08:18:42;102660.88;;;23.42;53.16
38616;BME280;24370;51.986;4.666;2023-10-08T08:21:09;102662.84;;;23.37;53.74
38616;BME280;24370;51.986;4.666;2023-10-08T08:23:39;102663.91;;;24.07;52.01
38616;BME280;24370;51.986;4.666;2023-10-08T08:26:04;102665.25;;;24.17;51.37
38616;BME280;24370;51.986;4.666;2023-10-08T08:28:35;102668.56;;;24.70;50.29
38616;BME280;24370;51.986;4.666;2023-10-08T08:31:02;102678.16;;;24.06;51.17
38616;BME280;24370;51.986;4.666;2023-10-08T08:33:32;102688.66;;;23.62;52.23
38616;BME280;24370;51.986;4.666;2023-10-08T08:36:17;102695.75;;;23.09;53.16
38616;BME280;24370;51.986;4.666;2023-10-08T08:38:42;102699.78;;;22.96;53.54
38616;BME280;24370;51.986;4.666;2023-10-08T08:41:08;102696.16;;;23.50;52.23
38616;BME280;24370;51.986;4.666;2023-10-08T08:43:38;102687.78;;;23.86;51.52
38616;BME280;24370;51.986;4.666;2023-10-08T08:46:09;102693.38;;;24.04;50.72
38616;BME280;24370;51.986;4.666;2023-10-08T08:48:40;102705.50;;;22.55;54.32
38616;BME280;24370;51.986;4.666;2023-10-08T08:51:06;102701.94;;;23.38;52.71
38616;BME280;24370;51.986;4.666;2023-10-08T08:53:33;102704.34;;;23.96;50.79
38616;BME280;24370;51.986;4.666;2023-10-08T08:56:00;102702.28;;;23.29;51.92
38616;BME280;24370;51.986;4.666;2023-10-08T08:58:32;102693.66;;;23.71;51.20
38616;BME280;24370;51.986;4.666;2023-10-08T09:00:59;102676.41;;;24.05;50.80
38616;BME280;24370;51.986;4.666;2023-10-08T09:03:25;102696.63;;;24.12;50.26
38616;BME280;24370;51.986;4.666;2023-10-08T09:05:58;102700.13;;;23.91;50.21
38616;BME280;24370;51.986;4.666;2023-10-08T09:08:28;102692.22;;;23.86;50.31
38616;BME280;24370;51.986;4.666;2023-10-08T09:10:57;102682.72;;;24.26;49.51
38616;BME280;24370;51.986;4.666;2023-10-08T09:13:27;102680.84;;;24.06;49.91
38616;BME280;24370;51.986;4.666;2023-10-08T09:15:57;102683.44;;;24.53;48.90
38616;BME280;24370;51.986;4.666;2023-10-08T09:18:24;102687.75;;;25.02;47.91
38616;BME280;24370;51.986;4.666;2023-10-08T09:20:52;102692.06;;;24.62;47.81
38616;BME280;24370;51.986;4.666;2023-10-08T09:23:18;102686.94;;;25.00;47.54
38616;BME280;24370;51.986;4.666;2023-10-08T09:25:47;102673.72;;;25.17;46.97
38616;BME280;24370;51.986;4.666;2023-10-08T09:28:15;102672.81;;;25.18;47.09
38616;BME280;24370;51.986;4.666;2023-10-08T09:30:42;102677.63;;;25.10;46.76
38616;BME280;24370;51.986;4.666;2023-10-08T09:33:11;102672.28;;;25.72;45.73
38616;BME280;24370;51.986;4.666;2023-10-08T09:35:46;102677.72;;;25.28;46.90
38616;BME280;24370;51.986;4.666;2023-10-08T09:38:11;102675.84;;;25.91;45.63
38616;BME280;24370;51.986;4.666;2023-10-08T09:40:38;102680.94;;;26.36;44.54
38616;BME280;24370;51.986;4.666;2023-10-08T09:43:04;102681.44;;;26.06;45.09
38616;BME280;24370;51.986;4.666;2023-10-08T09:45:30;102697.94;;;26.73;44.05
38616;BME280;24370;51.986;4.666;2023-10-08T09:47:56;102689.28;;;25.50;46.04
38616;BME280;24370;51.986;4.666;2023-10-08T09:50:28;102678.25;;;26.36;44.39
38616;BME280;24370;51.986;4.666;2023-10-08T09:53:09;102666.88;;;26.31;44.80
38616;BME280;24370;51.986;4.666;2023-10-08T09:55:45;102666.38;;;26.41;44.70
38616;BME280;24370;51.986;4.666;2023-10-08T09:58:12;102668.28;;;26.20;44.62
38616;BME280;24370;51.986;4.666;2023-10-08T10:00:40;102670.19;;;25.98;45.26
38616;BME280;24370;51.986;4.666;2023-10-08T10:03:08;102692.06;;;26.07;45.20
38616;BME280;24370;51.986;4.666;2023-10-08T10:05:35;102690.88;;;26.89;42.87
38616;BME280;24370;51.986;4.666;2023-10-08T10:08:04;102673.13;;;26.12;44.61
38616;BME280;24370;51.986;4.666;2023-10-08T10:10:36;102668.13;;;26.23;44.69
38616;BME280;24370;51.986;4.666;2023-10-08T10:13:10;102674.00;;;27.22;43.17
38616;BME280;24370;51.986;4.666;2023-10-08T10:15:36;102680.16;;;27.07;43.47
38616;BME280;24370;51.986;4.666;2023-10-08T10:20:51;102685.09;;;25.84;45.38
38616;BME280;24370;51.986;4.666;2023-10-08T10:23:38;102686.69;;;26.09;45.43
38616;BME280;24370;51.986;4.666;2023-10-08T10:26:29;102697.69;;;26.01;45.41
38616;BME280;24370;51.986;4.666;2023-10-08T10:31:39;102706.81;;;25.37;46.83
38616;BME280;24370;51.986;4.666;2023-10-08T10:34:06;102705.63;;;26.62;44.23
38616;BME280;24370;51.986;4.666;2023-10-08T10:36:34;102704.72;;;26.24;44.55
38616;BME280;24370;51.986;4.666;2023-10-08T10:39:00;102702.88;;;26.25;44.74
38616;BME280;24370;51.986;4.666;2023-10-08T10:41:25;102702.97;;;25.84;46.09
38616;BME280;24370;51.986;4.666;2023-10-08T10:43:52;102710.63;;;26.12;44.88
38616;BME280;24370;51.986;4.666;2023-10-08T10:46:18;102699.53;;;26.39;44.92
38616;BME280;24370;51.986;4.666;2023-10-08T10:48:56;102700.84;;;26.49;44.84
38616;BME280;24370;51.986;4.666;2023-10-08T10:51:41;102707.06;;;25.72;46.09
38616;BME280;24370;51.986;4.666;2023-10-08T10:54:06;102686.91;;;26.97;43.93
38616;BME280;24370;51.986;4.666;2023-10-08T10:56:46;102686.69;;;26.65;44.52
38616;BME280;24370;51.986;4.666;2023-10-08T10:59:13;102692.66;;;26.52;44.63
38616;BME280;24370;51.986;4.666;2023-10-08T11:01:49;102688.03;;;26.56;44.08
38616;BME280;24370;51.986;4.666;2023-10-08T11:04:19;102684.41;;;27.11;43.54
38616;BME280;24370;51.986;4.666;2023-10-08T11:06:49;102690.31;;;27.35;42.88
38616;BME280;24370;51.986;4.666;2023-10-08T11:09:16;102679.16;;;26.73;43.33
38616;BME280;24370;51.986;4.666;2023-10-08T11:11:48;102673.88;;;26.52;44.23
38616;BME280;24370;51.986;4.666;2023-10-08T11:14:19;102681.25;;;27.03;43.53
38616;BME280;24370;51.986;4.666;2023-10-08T11:16:46;102677.63;;;27.04;43.49
38616;BME280;24370;51.986;4.666;2023-10-08T11:19:13;102668.91;;;27.69;42.32
38616;BME280;24370;51.986;4.666;2023-10-08T11:21:51;102666.91;;;28.22;41.36
38616;BME280;24370;51.986;4.666;2023-10-08T11:24:29;102663.34;;;28.53;41.04
38616;BME280;24370;51.986;4.666;2023-10-08T11:26:55;102663.72;;;27.82;42.29
38616;BME280;24370;51.986;4.666;2023-10-08T11:29:41;102670.13;;;28.29;41.34
38616;BME280;24370;51.986;4.666;2023-10-08T11:32:07;102671.91;;;27.96;41.10
38616;BME280;24370;51.986;4.666;2023-10-08T11:34:38;102662.75;;;28.16;40.95
38616;BME280;24370;51.986;4.666;2023-10-08T11:37:05;102659.28;;;27.65;42.09
38616;BME280;24370;51.986;4.666;2023-10-08T11:39:46;102667.13;;;26.99;43.74
38616;BME280;24370;51.986;4.666;2023-10-08T11:42:11;102667.13;;;27.85;41.97
38616;BME280;24370;51.986;4.666;2023-10-08T11:44:57;102656.94;;;28.08;41.87
38616;BME280;24370;51.986;4.666;2023-10-08T11:47:25;102670.00;;;27.82;42.52
38616;BME280;24370;51.986;4.666;2023-10-08T11:49:56;102665.31;;;27.52;42.74
38616;BME280;24370;51.986;4.666;2023-10-08T11:52:42;102671.25;;;28.08;42.10
38616;BME280;24370;51.986;4.666;2023-10-08T11:55:11;102664.56;;;28.00;41.79
38616;BME280;24370;51.986;4.666;2023-10-08T11:57:49;102652.88;;;28.49;41.32
38616;BME280;24370;51.986;4.666;2023-10-08T12:00:16;102655.81;;;28.44;40.76
38616;BME280;24370;51.986;4.666;2023-10-08T12:02:48;102656.53;;;28.32;41.43
38616;BME280;24370;51.986;4.666;2023-10-08T12:05:14;102656.66;;;28.76;40.51
38616;BME280;24370;51.986;4.666;2023-10-08T12:07:46;102650.94;;;28.51;41.06
38616;BME280;24370;51.986;4.666;2023-10-08T12:10:12;102639.31;;;28.34;41.49
38616;BME280;24370;51.986;4.666;2023-10-08T12:12:37;102642.38;;;28.90;40.51
38616;BME280;24370;51.986;4.666;2023-10-08T12:15:03;102641.25;;;28.16;41.46
38616;BME280;24370;51.986;4.666;2023-10-08T12:17:29;102633.38;;;27.64;42.64
38616;BME280;24370;51.986;4.666;2023-10-08T12:20:05;102623.03;;;28.21;41.75
38616;BME280;24370;51.986;4.666;2023-10-08T12:22:51;102611.16;;;28.25;41.83
38616;BME280;24370;51.986;4.666;2023-10-08T12:25:17;102614.63;;;28.90;41.25
38616;BME280;24370;51.986;4.666;2023-10-08T12:27:42;102608.34;;;29.34;39.79
38616;BME280;24370;51.986;4.666;2023-10-08T12:30:09;102603.94;;;29.48;39.62
38616;BME280;24370;51.986;4.666;2023-10-08T12:32:36;102599.78;;;28.52;40.94
38616;BME280;24370;51.986;4.666;2023-10-08T12:35:08;102588.44;;;29.22;39.96
38616;BME280;24370;51.986;4.666;2023-10-08T12:37:40;102585.19;;;28.56;41.24
38616;BME280;24370;51.986;4.666;2023-10-08T12:40:07;102587.50;;;29.38;40.69
38616;BME280;24370;51.986;4.666;2023-10-08T12:42:48;102588.13;;;28.52;41.59
38616;BME280;24370;51.986;4.666;2023-10-08T12:45:15;102592.13;;;28.60;41.32
38616;BME280;24370;51.986;4.666;2023-10-08T12:47:52;102592.78;;;28.80;40.73
38616;BME280;24370;51.986;4.666;2023-10-08T12:50:18;102580.56;;;28.58;41.28
38616;BME280;24370;51.986;4.666;2023-10-08T12:53:08;102587.81;;;28.42;41.61
38616;BME280;24370;51.986;4.666;2023-10-08T12:55:39;102572.69;;;28.55;41.55
38616;BME280;24370;51.986;4.666;2023-10-08T12:58:05;102567.97;;;28.29;42.50
38616;BME280;24370;51.986;4.666;2023-10-08T13:00:38;102567.63;;;27.71;43.89
38616;BME280;24370;51.986;4.666;2023-10-08T13:03:04;102566.53;;;27.08;44.46
38616;BME280;24370;51.986;4.666;2023-10-08T13:05:32;102554.19;;;27.55;44.06
38616;BME280;24370;51.986;4.666;2023-10-08T13:07:59;102554.81;;;28.54;42.44
38616;BME280;24370;51.986;4.666;2023-10-08T13:10:35;102554.81;;;28.08;42.88
38616;BME280;24370;51.986;4.666;2023-10-08T13:13:00;102555.41;;;28.59;42.18
38616;BME280;24370;51.986;4.666;2023-10-08T13:15:25;102547.25;;;28.91;41.67
38616;BME280;24370;51.986;4.666;2023-10-08T13:17:54;102559.19;;;29.02;41.83
38616;BME280;24370;51.986;4.666;2023-10-08T13:20:19;102566.31;;;29.32;40.94
38616;BME280;24370;51.986;4.666;2023-10-08T13:22:46;102563.41;;;29.20;40.63
38616;BME280;24370;51.986;4.666;2023-10-08T13:25:12;102559.78;;;29.21;40.56
38616;BME280;24370;51.986;4.666;2023-10-08T13:27:40;102559.03;;;28.28;42.37